createdAt,value
2022-08-25T00:00:01.460Z,4.52
2022-08-25T00:05:17.590Z,4.52
2022-08-25T00:09:43.737Z,4.47
2022-08-25T00:14:26.095Z,4.47
2022-08-25T00:19:35.216Z,4.5
2022-08-25T00:24:44.986Z,4.5
2022-08-25T00:29:54.814Z,4.49
2022-08-25T00:35:03.219Z,4.49
2022-08-25T00:40:13.273Z,4.5
2022-08-25T00:45:22.735Z,4.53
2022-08-25T00:50:33.950Z,4.53
2022-08-25T00:55:43.537Z,4.28
2022-08-25T01:02:14.225Z,4.28
2022-08-25T01:07:18.143Z,4.4
2022-08-25T01:12:31.603Z,4.4
2022-08-25T01:17:37.469Z,4.47
2022-08-25T01:22:55.616Z,4.47
2022-08-25T01:27:56.348Z,4.49
2022-08-25T01:33:05.468Z,4.49
2022-08-25T01:38:15.222Z,4.26
2022-08-25T01:43:24.982Z,4.26
2022-08-25T01:48:32.816Z,4.33
2022-08-25T01:53:41.935Z,4.33
2022-08-25T01:58:51.698Z,4.44
2022-08-25T02:04:03.070Z,4.44
2022-08-25T02:09:11.855Z,4.32
2022-08-25T02:14:20.318Z,4.32
2022-08-25T02:19:28.829Z,4.34
2022-08-25T02:24:38.577Z,4.34
2022-08-25T02:29:48.351Z,4.44
2022-08-25T02:34:56.183Z,4.44
2022-08-25T02:40:05.030Z,4.43
2022-08-25T02:45:13.145Z,4.43
2022-08-25T02:50:21.611Z,4.5
2022-08-25T02:55:34.784Z,4.5
2022-08-25T03:00:43.500Z,4.43
2022-08-25T03:05:50.891Z,4.43
2022-08-25T03:10:59.367Z,4.48
2022-08-25T03:16:13.638Z,4.47
2022-08-25T03:21:17.757Z,4.47
2022-08-25T03:26:27.374Z,4.48
2022-08-25T03:31:37.433Z,4.48
2022-08-25T03:36:46.894Z,4.51
2022-08-25T03:41:57.294Z,4.51
2022-08-25T03:47:07.075Z,4.49
2022-08-25T03:52:15.538Z,4.49
2022-08-25T03:57:24.017Z,4.54
2022-08-25T04:02:33.458Z,4.54
2022-08-25T04:07:42.962Z,4.52
2022-08-25T04:12:51.372Z,4.52
2022-08-25T04:17:59.855Z,4.51
2022-08-25T04:23:09.607Z,4.51
2022-08-25T04:28:17.449Z,4.5
2022-08-25T04:33:26.579Z,4.5
2022-08-25T04:38:36.328Z,4.5
2022-08-25T04:43:45.451Z,4.5
2022-08-25T04:48:54.591Z,4.53
2022-08-25T04:54:03.090Z,4.53
2022-08-25T04:59:14.127Z,4.51
2022-08-25T05:04:29.462Z,4.51
2022-08-25T05:09:33.246Z,4.48
2022-08-25T05:14:41.016Z,4.48
2022-08-25T05:19:49.294Z,4.5
2022-08-25T05:24:59.498Z,4.5
2022-08-25T05:30:08.812Z,4.51
2022-08-25T05:35:16.652Z,4.51
2022-08-25T05:40:26.649Z,4.53
2022-08-25T05:45:35.853Z,4.53
2022-08-25T05:50:44.636Z,4.52
2022-08-25T05:55:54.408Z,4.52
2022-08-25T06:01:03.929Z,4.52
2022-08-25T06:06:13.308Z,4.52
2022-08-25T06:11:22.415Z,4.52
2022-08-25T06:16:32.556Z,4.52
2022-08-25T06:21:41.296Z,4.55
2022-08-25T06:26:50.413Z,4.55
2022-08-25T06:31:59.441Z,4.54
2022-08-25T06:37:08.660Z,4.52
2022-08-25T06:42:18.427Z,4.52
2022-08-25T06:47:27.573Z,4.55
2022-08-25T06:52:37.946Z,4.55
2022-08-25T06:57:47.130Z,4.52
2022-08-25T07:02:56.163Z,4.52
2022-08-25T07:08:05.648Z,4.55
2022-08-25T07:13:13.775Z,4.55
2022-08-25T07:18:22.266Z,4.55
2022-08-25T07:23:30.730Z,4.55
2022-08-25T07:28:47.671Z,4.58
2022-08-25T07:33:49.215Z,4.58
2022-08-25T07:38:58.117Z,4.55
2022-08-25T07:44:07.221Z,4.55
2022-08-25T07:49:23.605Z,4.57
2022-08-25T07:54:38.301Z,4.57
2022-08-25T07:59:40.669Z,4.59
2022-08-25T08:04:43.649Z,4.59
2022-08-25T08:11:05.461Z,4.61
2022-08-25T08:15:00.648Z,4.61
2022-08-25T08:20:08.506Z,4.62
2022-08-25T08:25:28.034Z,4.62
2022-08-25T08:30:26.767Z,4.6
2022-08-25T08:35:34.581Z,4.6
2022-08-25T08:40:47.388Z,4.62
2022-08-25T08:45:54.008Z,4.62
2022-08-25T08:51:00.692Z,4.69
2022-08-25T08:56:12.594Z,4.69
2022-08-25T09:01:20.441Z,4.65
2022-08-25T09:06:31.232Z,4.65
2022-08-25T09:11:39.714Z,4.63
2022-08-25T09:16:49.158Z,4.63
2022-08-25T09:21:57.962Z,4.65
2022-08-25T09:27:06.765Z,4.65
2022-08-25T09:32:31.854Z,4.59
2022-08-25T09:37:25.316Z,4.59
2022-08-25T09:42:35.054Z,4.67
2022-08-25T09:47:46.669Z,4.67
2022-08-25T09:52:58.226Z,4.68
2022-08-25T09:58:09.816Z,4.68
2022-08-25T10:03:24.713Z,4.72
2022-08-25T10:08:39.385Z,4.77
2022-08-25T10:13:54.092Z,4.77
2022-08-25T10:19:09.570Z,4.67
2022-08-25T10:24:25.307Z,4.67
2022-08-25T10:29:41.289Z,4.68
2022-08-25T10:34:56.131Z,4.68
2022-08-25T10:40:11.223Z,4.67
2022-08-25T10:45:25.890Z,4.67
2022-08-25T10:50:45.272Z,4.7
2022-08-25T10:55:56.928Z,4.7
2022-08-25T10:59:59.547Z,4.7
2022-08-25T11:06:36.449Z,4.7
2022-08-25T11:12:17.155Z,4.75
2022-08-25T11:12:46.769Z,4.75
2022-08-25T11:17:35.464Z,4.75
2022-08-25T11:24:50.008Z,4.76
2022-08-25T11:25:18.358Z,4.76
2022-08-25T11:30:31.083Z,4.7
2022-08-25T11:36:37.939Z,4.7
2022-08-25T11:44:26.320Z,4.7
2022-08-25T11:51:53.295Z,4.75
2022-08-25T11:57:02.042Z,4.75
2022-08-25T12:02:09.456Z,4.76
2022-08-25T12:07:22.194Z,4.76
2022-08-25T12:12:28.365Z,4.78
2022-08-25T12:17:36.819Z,4.78
2022-08-25T12:22:44.659Z,4.76
2022-08-25T12:27:54.990Z,4.76
2022-08-25T12:33:03.546Z,4.72
2022-08-25T12:38:12.647Z,4.72
2022-08-25T12:43:27.337Z,4.73
2022-08-25T12:48:58.498Z,4.73
2022-08-25T12:54:18.966Z,4.71
2022-08-25T12:59:14.739Z,4.75
2022-08-25T13:04:25.139Z,4.75
2022-08-25T13:09:35.620Z,4.73
2022-08-25T13:14:50.240Z,4.73
2022-08-25T13:19:54.414Z,4.72
2022-08-25T13:25:05.619Z,4.72
2022-08-25T13:30:18.981Z,4.73
2022-08-25T13:35:33.279Z,4.73
2022-08-25T13:40:38.827Z,4.75
2022-08-25T13:45:46.073Z,4.75
2022-08-25T13:50:58.299Z,4.76
2022-08-25T13:56:10.105Z,4.76
2022-08-25T14:01:50.737Z,4.71
2022-08-25T14:06:28.642Z,4.71
2022-08-25T14:11:39.368Z,4.72
2022-08-25T14:16:49.611Z,4.72
2022-08-25T14:21:59.202Z,4.76
2022-08-25T14:27:12.103Z,4.76
2022-08-25T14:32:18.518Z,4.83
2022-08-25T14:37:27.226Z,4.83
2022-08-25T14:42:36.293Z,4.77
2022-08-25T14:47:52.443Z,4.77
2022-08-25T14:53:07.589Z,4.81
2022-08-25T14:58:25.853Z,4.81
2022-08-25T15:03:38.389Z,4.79
2022-08-25T15:08:53.258Z,4.79
2022-08-25T15:14:08.774Z,4.81
2022-08-25T15:19:23.836Z,4.81
2022-08-25T15:24:38.949Z,4.78
2022-08-25T15:29:54.707Z,4.78
2022-08-25T15:35:12.141Z,4.8
2022-08-25T15:40:27.699Z,4.8
2022-08-25T15:44:59.028Z,4.8
2022-08-25T15:49:38.107Z,4.8
2022-08-25T15:54:48.381Z,4.8
2022-08-25T15:59:58.252Z,4.8
2022-08-25T16:05:06.139Z,4.84
2022-08-25T16:10:15.217Z,4.84
2022-08-25T16:15:29.175Z,4.86
2022-08-25T16:20:33.018Z,4.82
2022-08-25T16:25:46.994Z,4.82
2022-08-25T16:30:53.463Z,4.84
2022-08-25T16:36:00.812Z,4.84
2022-08-25T16:41:16.275Z,4.84
2022-08-25T16:46:24.533Z,4.84
2022-08-25T16:51:34.205Z,4.88
2022-08-25T16:56:42.991Z,4.88
2022-08-25T17:01:53.679Z,4.86
2022-08-25T17:07:05.187Z,4.86
2022-08-25T17:12:12.969Z,4.84
2022-08-25T17:17:27.241Z,4.84
2022-08-25T17:22:31.754Z,4.8
2022-08-25T17:27:40.331Z,4.8
2022-08-25T17:32:52.620Z,4.88
2022-08-25T17:37:59.210Z,4.88
2022-08-25T17:43:09.928Z,4.81
2022-08-25T17:48:19.271Z,4.81
2022-08-25T17:53:29.950Z,4.87
2022-08-25T17:58:37.617Z,4.87
2022-08-25T18:03:47.394Z,4.81
2022-08-25T18:09:01.375Z,4.81
2022-08-25T18:14:05.617Z,4.82
2022-08-25T18:19:15.369Z,4.82
2022-08-25T18:24:27.693Z,4.85
2022-08-25T18:29:39.618Z,4.85
2022-08-25T18:34:45.946Z,4.83
2022-08-25T18:39:54.597Z,4.83
2022-08-25T18:45:05.474Z,4.86
2022-08-25T18:50:14.724Z,4.86
2022-08-25T18:55:22.409Z,4.89
2022-08-25T19:00:32.776Z,4.89
2022-08-25T19:05:57.951Z,4.86
2022-08-25T19:11:04.483Z,4.86
2022-08-25T19:16:20.121Z,4.87
2022-08-25T19:21:34.884Z,4.87
2022-08-25T19:26:54.630Z,4.87
2022-08-25T19:32:10.735Z,4.87
2022-08-25T19:37:23.966Z,4.86
2022-08-25T19:42:40.131Z,4.81
2022-08-25T19:47:55.709Z,4.81
2022-08-25T19:53:11.364Z,4.84
2022-08-25T19:58:30.610Z,4.84
2022-08-25T20:02:23.073Z,4.88
2022-08-25T20:07:31.394Z,4.88
2022-08-25T20:12:40.672Z,4.82
2022-08-25T20:17:49.614Z,4.82
2022-08-25T20:22:59.384Z,4.78
2022-08-25T20:28:19.367Z,4.78
2022-08-25T20:33:23.680Z,4.86
2022-08-25T20:38:26.736Z,4.86
2022-08-25T20:43:36.514Z,4.83
2022-08-25T20:48:44.345Z,4.83
2022-08-25T20:53:54.101Z,4.79
2022-08-25T20:59:03.931Z,4.79
2022-08-25T21:04:14.736Z,4.79
2022-08-25T21:09:22.096Z,4.79
2022-08-25T21:14:31.957Z,4.81
2022-08-25T21:19:42.343Z,4.81
2022-08-25T21:24:49.464Z,4.79
2022-08-25T21:29:59.553Z,4.79
2022-08-25T21:35:08.333Z,4.82
2022-08-25T21:40:17.078Z,4.82
2022-08-25T21:45:36.333Z,4.78
2022-08-25T21:50:37.303Z,4.78
2022-08-25T21:55:46.736Z,4.8
2022-08-25T22:00:56.162Z,4.8
2022-08-25T22:06:05.653Z,4.76
2022-08-25T22:11:15.083Z,4.76
2022-08-25T22:16:23.489Z,4.76
2022-08-25T22:21:31.868Z,4.76
2022-08-25T22:26:40.181Z,4.78
2022-08-25T22:31:53.232Z,4.78
2022-08-25T22:37:01.070Z,4.75
2022-08-25T22:42:10.112Z,4.75
2022-08-25T22:47:21.779Z,4.73
2022-08-25T22:52:37.874Z,4.73
2022-08-25T22:57:54.760Z,4.8
2022-08-25T23:03:09.727Z,4.84
2022-08-25T23:08:27.134Z,4.84
2022-08-25T23:13:39.333Z,4.79
2022-08-25T23:18:55.498Z,4.79
2022-08-25T23:24:11.149Z,4.79
2022-08-25T23:29:27.254Z,4.79
2022-08-25T23:34:43.340Z,4.85
2022-08-25T23:39:58.901Z,4.85
2022-08-25T23:44:24.527Z,4.88
2022-08-25T23:49:09.491Z,4.88
2022-08-25T23:54:16.541Z,4.86
2022-08-25T23:59:25.857Z,4.86
